Flugplatz Dankern

METAR ETWM TAF EHGG
3 °C
°C
-
°C
16m
Leeftijd
08:35:30
LT
07:35
UTC
0 ft

1.000

2.000

3.000

4.000

5.000

BKN 1.000
MVFR
<?= Yii::t('app', 'Wind direction') ?> <?= Yii::t('app', 'of'); ?>
010°
17:05
Zonsondergang
93%
Luchtvochtigheid
Windschering
Gesloten/sneeuw
Baanzicht
Baanconditie
Verticaal zicht
Min. zicht
CAVOK
Trend
Correctie
Speciaal rapport
1027 hPa
QNH
METAR ETWM 270720Z 01008KT 9999 BKN010 03/02 Q1027 GRN
Zwaar bewolkt
8 kt
8 kt
08:00
MVFR
10 kt
09:00
MVFR
10 kt
10:00
MVFR
10 kt
11:00
MVFR
10 kt
12:00
MVFR
10 kt
13:00
MVFR
10 kt
14:00
MVFR
10 kt
10 km+
Zicht
1.000 ft
Plafond
8 kt
Wind
metar-taf.com/DE-0195

Metar-Taf.com

Visuele decoder

Wij en derden volgen je internetgedrag op onze website met cookies. Als je doorgaat, gaan we ervan uit dat je akkoord gaat met onze cookiebeleid.